createdAt,value
2023-01-30T00:01:19.090Z,11.63
2023-01-30T00:03:47.639Z,12.75
2023-01-30T00:06:16.470Z,12.50
2023-01-30T00:08:46.190Z,13.60
2023-01-30T00:11:16.302Z,12.82
2023-01-30T00:13:45.410Z,13.23
2023-01-30T00:16:22.257Z,13.07
2023-01-30T00:18:51.942Z,12.95
2023-01-30T00:21:22.309Z,13.55
2023-01-30T00:23:54.269Z,13.00
2023-01-30T00:26:24.594Z,13.18
2023-01-30T00:28:54.959Z,14.25
2023-01-30T00:31:29.715Z,13.50
2023-01-30T00:34:27.976Z,13.53
2023-01-30T00:37:07.849Z,15.23
2023-01-30T00:39:37.843Z,16.27
2023-01-30T00:42:25.866Z,17.13
2023-01-30T00:45:11.500Z,15.48
2023-01-30T00:47:42.195Z,17.40
2023-01-30T00:50:13.056Z,17.50
2023-01-30T00:52:46.493Z,15.75
2023-01-30T00:55:17.058Z,16.33
2023-01-30T00:57:47.592Z,16.88
2023-01-30T01:00:23.402Z,15.90
2023-01-30T01:02:57.978Z,15.48
2023-01-30T01:05:32.261Z,15.45
2023-01-30T01:08:03.406Z,15.27
2023-01-30T01:10:31.795Z,17.73
2023-01-30T01:13:03.587Z,17.38
2023-01-30T01:15:31.896Z,16.13
2023-01-30T01:18:03.962Z,14.98
2023-01-30T01:20:32.298Z,16.10
2023-01-30T01:23:04.307Z,14.95
2023-01-30T01:25:32.599Z,13.48
2023-01-30T01:28:32.393Z,13.27
2023-01-30T01:31:08.299Z,13.07
2023-01-30T01:36:29.430Z,11.82
2023-01-30T01:39:04.771Z,12.82
2023-01-30T01:41:32.085Z,12.35
2023-01-30T01:44:03.235Z,13.20
2023-01-30T01:46:34.195Z,12.38
2023-01-30T01:49:07.429Z,12.25
2023-01-30T01:51:41.645Z,12.23
2023-01-30T01:54:15.096Z,13.02
2023-01-30T01:56:49.194Z,12.10
2023-01-30T01:59:24.781Z,12.77
2023-01-30T02:02:01.116Z,12.80
2023-01-30T02:04:54.369Z,13.35
2023-01-30T02:07:26.803Z,13.48
2023-01-30T02:09:55.216Z,13.02
2023-01-30T02:12:24.601Z,15.43
2023-01-30T02:14:57.544Z,12.60
2023-01-30T02:17:26.198Z,13.23
2023-01-30T02:20:06.424Z,13.32
2023-01-30T02:23:25.622Z,13.15
2023-01-30T02:26:32.667Z,13.52
2023-01-30T02:29:33.997Z,12.85
2023-01-30T02:32:11.873Z,13.73
2023-01-30T02:34:51.920Z,12.60
2023-01-30T02:37:36.392Z,13.98
2023-01-30T02:40:17.925Z,14.05
2023-01-30T02:43:01.445Z,14.50
2023-01-30T02:45:37.183Z,15.20
2023-01-30T02:48:20.059Z,13.70
2023-01-30T02:50:55.155Z,15.25
2023-01-30T02:53:23.413Z,15.97
2023-01-30T02:55:53.675Z,15.95
2023-01-30T02:58:24.945Z,16.00
2023-01-30T03:01:08.680Z,16.05
2023-01-30T03:03:55.188Z,15.77
2023-01-30T03:06:43.225Z,15.15
2023-01-30T03:09:19.749Z,15.98
2023-01-30T03:11:57.449Z,15.93
2023-01-30T03:14:30.478Z,18.20
2023-01-30T03:17:02.037Z,17.20
2023-01-30T03:19:31.947Z,17.85
2023-01-30T03:22:01.937Z,18.95
2023-01-30T03:24:30.429Z,17.42
2023-01-30T03:27:09.355Z,17.25
2023-01-30T03:29:38.628Z,18.73
2023-01-30T03:32:07.812Z,15.85
2023-01-30T03:34:41.968Z,16.42
2023-01-30T03:37:12.354Z,15.80
2023-01-30T03:39:40.630Z,15.48
2023-01-30T03:42:15.588Z,15.38
2023-01-30T03:44:44.267Z,15.83
2023-01-30T03:47:12.627Z,14.20
2023-01-30T03:49:42.567Z,14.80
2023-01-30T03:52:11.903Z,13.38
2023-01-30T03:54:41.251Z,14.70
2023-01-30T03:57:09.949Z,14.00
2023-01-30T03:59:39.266Z,14.77
2023-01-30T04:02:13.921Z,14.40
2023-01-30T04:04:45.306Z,14.25
2023-01-30T04:07:13.645Z,14.48
2023-01-30T04:09:44.500Z,13.05
2023-01-30T04:12:15.291Z,14.23
2023-01-30T04:14:53.475Z,14.88
2023-01-30T04:17:45.186Z,15.10
2023-01-30T04:20:38.995Z,17.25
2023-01-30T04:23:08.834Z,16.20
2023-01-30T04:25:38.081Z,16.55
2023-01-30T04:28:08.944Z,17.17
2023-01-30T04:30:39.251Z,17.00
2023-01-30T04:33:26.148Z,17.60
2023-01-30T04:35:57.792Z,18.02
2023-01-30T04:38:27.817Z,17.73
2023-01-30T04:40:58.752Z,18.60
2023-01-30T04:43:30.623Z,17.83
2023-01-30T04:46:01.714Z,16.17
2023-01-30T04:48:32.109Z,16.40
2023-01-30T04:51:03.850Z,16.08
2023-01-30T04:53:32.204Z,15.77
2023-01-30T04:56:02.561Z,15.75
2023-01-30T04:58:31.979Z,16.02
2023-01-30T05:01:15.832Z,16.27
2023-01-30T05:03:47.054Z,16.98
2023-01-30T05:06:36.660Z,15.35
2023-01-30T05:09:10.631Z,17.35
2023-01-30T05:11:41.914Z,20.33
2023-01-30T05:14:10.312Z,21.95
2023-01-30T05:16:39.765Z,21.67
2023-01-30T05:19:14.547Z,20.13
2023-01-30T05:21:57.573Z,21.20
2023-01-30T05:24:25.893Z,20.40
2023-01-30T05:26:54.163Z,20.73
2023-01-30T05:29:22.601Z,19.42
2023-01-30T05:31:51.985Z,17.55
2023-01-30T05:34:21.354Z,17.52
2023-01-30T05:36:49.780Z,17.48
2023-01-30T05:39:20.510Z,17.73
2023-01-30T05:41:48.952Z,17.08
2023-01-30T05:44:18.462Z,17.05
2023-01-30T05:46:46.804Z,15.93
2023-01-30T05:49:15.265Z,15.95
2023-01-30T05:51:44.623Z,18.27
2023-01-30T05:54:12.940Z,15.75
2023-01-30T05:56:45.672Z,17.00
2023-01-30T05:59:15.460Z,23.65
2023-01-30T06:01:44.807Z,20.15
2023-01-30T06:04:14.407Z,20.17
2023-01-30T06:07:11.279Z,21.80
2023-01-30T06:12:17.424Z,16.95
2023-01-30T06:15:09.008Z,18.85
2023-01-30T06:17:37.422Z,18.15
2023-01-30T06:20:13.943Z,17.58
2023-01-30T06:22:43.244Z,19.17
2023-01-30T06:25:13.771Z,23.42
2023-01-30T06:27:44.624Z,24.30
2023-01-30T06:30:14.986Z,27.30
2023-01-30T06:32:45.403Z,28.52
2023-01-30T06:35:15.131Z,28.45
2023-01-30T06:37:47.862Z,19.92
2023-01-30T06:40:20.312Z,16.33
2023-01-30T06:42:51.307Z,15.38
2023-01-30T06:45:23.313Z,17.27
2023-01-30T06:47:53.925Z,16.30
2023-01-30T06:50:27.661Z,18.05
2023-01-30T06:53:04.306Z,17.45
2023-01-30T06:55:36.923Z,17.48
2023-01-30T06:58:20.107Z,17.63
2023-01-30T07:00:49.640Z,16.92
2023-01-30T07:03:30.162Z,17.98
2023-01-30T07:06:00.466Z,17.75
2023-01-30T07:08:37.807Z,16.50
2023-01-30T07:11:07.892Z,16.00
2023-01-30T07:13:37.914Z,16.40
2023-01-30T07:17:07.592Z,16.45
2023-01-30T07:19:37.028Z,17.30
2023-01-30T07:22:09.260Z,17.10
2023-01-30T07:24:39.896Z,18.60
2023-01-30T07:27:08.943Z,17.58
2023-01-30T07:29:41.466Z,15.88
2023-01-30T07:32:16.666Z,17.40
2023-01-30T07:34:46.053Z,16.27
2023-01-30T07:37:19.132Z,16.80
2023-01-30T07:39:48.665Z,16.48
2023-01-30T07:42:21.032Z,17.77
2023-01-30T07:44:51.975Z,17.60
2023-01-30T07:47:51.091Z,16.90
2023-01-30T07:50:20.266Z,15.88
2023-01-30T07:53:31.671Z,16.85
2023-01-30T07:56:33.056Z,16.83
2023-01-30T07:59:08.537Z,16.35
2023-01-30T08:05:16.441Z,14.27
2023-01-30T08:07:47.626Z,14.07
2023-01-30T08:10:18.007Z,16.30
2023-01-30T08:13:51.602Z,17.20
2023-01-30T08:16:24.275Z,14.55
2023-01-30T08:20:20.124Z,15.63
2023-01-30T08:22:56.432Z,16.98
2023-01-30T08:29:41.641Z,15.20
2023-01-30T08:32:15.979Z,20.83
2023-01-30T08:34:46.403Z,22.55
2023-01-30T08:37:15.792Z,26.92
2023-01-30T08:40:11.063Z,27.60
2023-01-30T08:42:45.252Z,25.98
2023-01-30T08:45:19.917Z,25.17
2023-01-30T08:48:20.913Z,15.98
2023-01-30T08:50:53.236Z,16.65
2023-01-30T08:53:23.257Z,20.00
2023-01-30T08:55:53.235Z,15.60
2023-01-30T08:58:27.604Z,16.00
2023-01-30T09:00:55.887Z,17.00
2023-01-30T09:04:25.246Z,18.05
2023-01-30T09:06:59.206Z,17.33
2023-01-30T09:09:35.907Z,15.73
2023-01-30T09:12:05.764Z,15.98
2023-01-30T09:14:35.516Z,15.40
2023-01-30T09:17:07.208Z,15.48
2023-01-30T09:19:37.639Z,14.35
2023-01-30T09:22:11.253Z,14.32
2023-01-30T09:25:00.321Z,14.75
2023-01-30T09:27:29.747Z,13.27
2023-01-30T09:30:16.434Z,13.93
2023-01-30T09:33:43.260Z,15.60
2023-01-30T09:36:13.568Z,14.63
2023-01-30T09:38:42.965Z,14.98
2023-01-30T09:41:53.319Z,15.80
2023-01-30T09:45:01.668Z,15.30
2023-01-30T09:47:39.792Z,15.25
2023-01-30T09:50:25.149Z,15.25
2023-01-30T09:52:59.184Z,13.57
2023-01-30T09:55:38.565Z,14.48
2023-01-30T09:58:43.558Z,15.60
2023-01-30T10:01:21.525Z,15.88
2023-01-30T10:04:03.388Z,15.32
2023-01-30T10:06:58.819Z,15.10
2023-01-30T10:09:37.021Z,14.63
2023-01-30T10:12:20.837Z,14.30
2023-01-30T10:15:06.112Z,14.88
2023-01-30T10:17:53.806Z,15.52
2023-01-30T10:20:45.092Z,15.15
2023-01-30T10:23:51.447Z,16.08
2023-01-30T10:26:30.675Z,16.10
2023-01-30T10:29:32.899Z,14.15
2023-01-30T10:32:29.163Z,12.82
2023-01-30T10:35:07.953Z,14.68
2023-01-30T10:37:57.331Z,16.15
2023-01-30T10:40:35.902Z,13.07
2023-01-30T10:43:11.177Z,17.20
2023-01-30T10:45:50.770Z,18.15
2023-01-30T10:48:55.737Z,14.50
2023-01-30T10:51:35.350Z,16.50
2023-01-30T10:54:17.976Z,13.50
2023-01-30T10:56:59.141Z,15.57
2023-01-30T11:00:05.210Z,15.63
2023-01-30T11:03:01.647Z,13.95
2023-01-30T11:06:44.696Z,10.98
2023-01-30T11:10:24.682Z,15.60
2023-01-30T11:12:58.032Z,16.45
2023-01-30T11:15:40.776Z,16.02
2023-01-30T11:18:42.192Z,16.65
2023-01-30T11:21:27.086Z,16.63
2023-01-30T11:24:07.129Z,17.33
2023-01-30T11:26:53.845Z,16.95
2023-01-30T11:30:30.862Z,14.48
2023-01-30T11:34:03.337Z,15.40
2023-01-30T11:37:15.443Z,14.57
2023-01-30T11:39:54.317Z,17.85
2023-01-30T11:42:54.189Z,16.77
2023-01-30T11:50:14.746Z,16.58
2023-01-30T11:52:51.080Z,16.00
2023-01-30T11:56:00.209Z,15.60
2023-01-30T11:58:41.118Z,19.58
2023-01-30T12:01:18.114Z,19.95
2023-01-30T12:03:51.612Z,18.98
2023-01-30T12:07:05.464Z,17.63
2023-01-30T12:09:40.723Z,17.25
2023-01-30T12:12:29.926Z,16.50
2023-01-30T12:15:21.790Z,16.98
2023-01-30T12:18:00.953Z,15.57
2023-01-30T12:20:42.102Z,14.98
2023-01-30T12:23:39.441Z,15.18
2023-01-30T12:26:42.132Z,14.60
2023-01-30T12:29:52.619Z,13.20
2023-01-30T12:32:28.872Z,14.30
2023-01-30T12:35:00.314Z,13.80
2023-01-30T12:37:46.781Z,14.50
2023-01-30T12:40:30.266Z,14.25
2023-01-30T12:43:15.827Z,15.13
2023-01-30T12:45:51.877Z,14.20
2023-01-30T12:48:48.810Z,14.23
2023-01-30T12:51:49.456Z,14.57
2023-01-30T12:54:52.170Z,14.52
2023-01-30T12:57:46.275Z,14.32
2023-01-30T13:00:35.759Z,14.95
2023-01-30T13:03:24.460Z,15.27
2023-01-30T13:06:29.324Z,14.93
2023-01-30T13:09:11.244Z,16.13
2023-01-30T13:11:55.115Z,14.35
2023-01-30T13:15:02.473Z,14.02
2023-01-30T13:20:51.358Z,12.85
2023-01-30T13:23:47.464Z,14.07
2023-01-30T13:26:20.605Z,14.45
2023-01-30T13:28:52.543Z,13.60
2023-01-30T13:31:25.272Z,14.48
2023-01-30T13:34:28.020Z,13.50
2023-01-30T13:37:27.434Z,13.77
2023-01-30T13:40:17.979Z,13.15
2023-01-30T13:42:53.625Z,13.55
2023-01-30T13:45:38.107Z,13.32
2023-01-30T13:48:27.147Z,13.75
2023-01-30T13:51:24.273Z,12.60
2023-01-30T13:53:59.856Z,13.38
2023-01-30T13:57:03.815Z,13.35
2023-01-30T14:00:18.034Z,13.45
2023-01-30T14:03:25.905Z,13.25
2023-01-30T14:06:35.843Z,13.30
2023-01-30T14:09:27.300Z,14.00
2023-01-30T14:12:04.114Z,12.73
2023-01-30T14:14:33.991Z,13.20
2023-01-30T14:17:16.300Z,13.45
2023-01-30T14:20:16.446Z,13.60
2023-01-30T14:23:59.397Z,13.77
2023-01-30T14:27:01.804Z,12.38
2023-01-30T14:30:36.534Z,12.38
2023-01-30T14:33:49.072Z,11.93
2023-01-30T14:37:32.829Z,11.55
2023-01-30T14:40:34.248Z,11.00
2023-01-30T14:43:48.517Z,11.30
2023-01-30T14:46:57.197Z,11.07
2023-01-30T14:49:58.803Z,11.90
2023-01-30T14:53:29.327Z,13.80
2023-01-30T14:56:04.171Z,12.80
2023-01-30T14:59:40.447Z,14.13
2023-01-30T15:02:43.753Z,11.82
2023-01-30T15:05:45.887Z,12.25
2023-01-30T15:08:20.554Z,9.98
2023-01-30T15:11:06.486Z,11.82
2023-01-30T15:23:47.009Z,17.55
2023-01-30T15:26:48.395Z,19.90
2023-01-30T15:29:51.380Z,19.55
2023-01-30T15:32:30.179Z,18.20
2023-01-30T15:35:32.883Z,17.45
2023-01-30T15:38:06.398Z,16.38
2023-01-30T15:41:10.955Z,15.93
2023-01-30T15:44:16.900Z,15.40
2023-01-30T15:46:52.386Z,14.10
2023-01-30T15:49:42.790Z,14.70
2023-01-30T15:52:47.346Z,14.75
2023-01-30T15:55:38.183Z,14.60
2023-01-30T15:58:12.165Z,13.48
2023-01-30T16:00:47.334Z,15.07
2023-01-30T16:03:21.787Z,14.20
2023-01-30T16:05:51.217Z,14.05
2023-01-30T16:08:23.903Z,14.80
2023-01-30T16:10:55.666Z,14.38
2023-01-30T16:13:30.190Z,15.23
2023-01-30T16:16:05.895Z,15.93
2023-01-30T16:18:42.447Z,14.75
2023-01-30T16:21:17.616Z,15.05
2023-01-30T16:23:56.369Z,15.43
2023-01-30T16:26:27.073Z,17.77
2023-01-30T16:29:03.966Z,17.58
2023-01-30T16:31:49.721Z,20.02
2023-01-30T16:34:30.482Z,24.33
2023-01-30T16:37:04.424Z,23.38
2023-01-30T16:39:36.444Z,21.02
2023-01-30T16:42:31.259Z,19.58
2023-01-30T16:45:55.160Z,18.63
2023-01-30T16:48:34.639Z,21.77
2023-01-30T16:51:35.282Z,23.65
2023-01-30T16:54:19.351Z,23.98
2023-01-30T16:56:56.166Z,23.40
2023-01-30T16:59:41.452Z,19.55
2023-01-30T17:02:43.282Z,16.02
2023-01-30T17:05:49.454Z,20.05
2023-01-30T17:09:16.470Z,18.60
2023-01-30T17:11:49.253Z,17.92
2023-01-30T17:14:23.271Z,18.95
2023-01-30T17:20:08.600Z,19.77
2023-01-30T17:22:42.074Z,17.80
2023-01-30T17:25:45.436Z,20.17
2023-01-30T17:28:24.879Z,20.80
2023-01-30T17:30:55.486Z,14.38
2023-01-30T17:33:32.078Z,17.65
2023-01-30T17:36:23.990Z,17.40
2023-01-30T17:39:00.810Z,14.52
2023-01-30T17:41:38.341Z,13.88
2023-01-30T17:44:34.374Z,16.20
2023-01-30T17:47:03.995Z,15.50
2023-01-30T17:49:42.499Z,16.77
2023-01-30T17:52:16.772Z,15.15
2023-01-30T17:54:53.280Z,14.05
2023-01-30T17:57:25.252Z,15.38
2023-01-30T18:00:06.385Z,15.20
2023-01-30T18:03:09.812Z,14.10
2023-01-30T18:05:45.245Z,13.80
2023-01-30T18:08:18.923Z,14.95
2023-01-30T18:10:48.771Z,11.55
2023-01-30T18:13:49.099Z,12.43
2023-01-30T18:16:38.271Z,12.18
2023-01-30T18:19:15.147Z,11.25
2023-01-30T18:21:51.130Z,8.20
2023-01-30T18:24:22.477Z,10.25
2023-01-30T18:26:53.853Z,10.02
2023-01-30T18:29:26.593Z,12.35
2023-01-30T18:32:05.505Z,11.77
2023-01-30T18:35:08.127Z,13.55
2023-01-30T18:37:45.413Z,11.65
2023-01-30T18:40:18.948Z,8.25
2023-01-30T18:42:50.895Z,13.98
2023-01-30T18:45:23.424Z,10.98
2023-01-30T18:48:31.285Z,9.15
2023-01-30T18:51:10.349Z,9.32
2023-01-30T18:54:10.845Z,8.57
2023-01-30T18:56:50.751Z,6.90
2023-01-30T18:59:51.268Z,5.55
2023-01-30T19:02:42.344Z,6.68
2023-01-30T19:05:16.112Z,5.18
2023-01-30T19:07:47.145Z,6.40
2023-01-30T19:10:23.189Z,6.35
2023-01-30T19:13:13.326Z,7.07
2023-01-30T19:15:50.154Z,6.05
2023-01-30T19:18:20.456Z,5.78
2023-01-30T19:20:58.231Z,6.72
2023-01-30T19:23:34.561Z,6.38
2023-01-30T19:26:07.211Z,6.95
2023-01-30T19:28:39.108Z,7.25
2023-01-30T19:31:16.160Z,7.57
2023-01-30T19:33:57.429Z,7.38
2023-01-30T19:37:26.689Z,7.57
2023-01-30T19:40:57.819Z,7.20
2023-01-30T19:43:31.098Z,6.78
2023-01-30T19:46:03.264Z,8.07
2023-01-30T19:49:51.180Z,7.30
2023-01-30T19:57:04.435Z,5.10
2023-01-30T20:00:00.976Z,5.20
2023-01-30T20:04:02.670Z,5.25
2023-01-30T20:11:25.626Z,4.63
2023-01-30T20:13:57.014Z,3.75
2023-01-30T20:16:32.014Z,5.22
2023-01-30T20:19:05.386Z,5.23
2023-01-30T20:21:38.359Z,4.78
2023-01-30T20:24:14.277Z,4.60
2023-01-30T20:26:51.589Z,4.18
2023-01-30T20:29:54.079Z,3.63
2023-01-30T20:32:30.159Z,4.00
2023-01-30T20:36:11.197Z,4.35
2023-01-30T20:38:47.368Z,4.80
2023-01-30T20:46:06.991Z,4.05
2023-01-30T20:49:05.773Z,3.90
2023-01-30T20:51:41.202Z,3.72
2023-01-30T20:54:29.009Z,3.40
2023-01-30T20:57:03.742Z,3.38
2023-01-30T20:59:34.297Z,3.42
2023-01-30T21:02:08.023Z,3.58
2023-01-30T21:04:40.386Z,3.72
2023-01-30T21:07:10.418Z,3.38
2023-01-30T21:09:43.781Z,3.92
2023-01-30T21:12:16.566Z,3.28
2023-01-30T21:14:47.535Z,3.03
2023-01-30T21:17:53.793Z,3.35
2023-01-30T21:20:27.910Z,2.42
2023-01-30T21:27:32.864Z,3.13
2023-01-30T21:31:28.617Z,4.85
2023-01-30T21:34:27.527Z,2.58
2023-01-30T21:37:17.679Z,2.25
2023-01-30T21:40:39.044Z,3.60
2023-01-30T21:43:33.640Z,2.67
2023-01-30T21:46:03.319Z,3.13
2023-01-30T21:49:09.961Z,2.65
2023-01-30T21:51:42.419Z,2.42
2023-01-30T21:54:19.857Z,2.95
2023-01-30T21:56:49.630Z,2.60
2023-01-30T21:59:18.639Z,2.03
2023-01-30T22:01:46.942Z,2.30
2023-01-30T22:04:19.612Z,2.38
2023-01-30T22:07:20.607Z,3.20
2023-01-30T22:09:53.317Z,2.58
2023-01-30T22:12:23.647Z,3.03
2023-01-30T22:14:53.855Z,3.05
2023-01-30T22:17:51.081Z,2.63
2023-01-30T22:20:34.629Z,2.50
2023-01-30T22:23:10.869Z,2.33
2023-01-30T22:25:44.211Z,2.58
2023-01-30T22:28:14.446Z,2.97
2023-01-30T22:30:43.729Z,2.95
2023-01-30T22:33:11.999Z,2.60
2023-01-30T22:35:49.472Z,2.10
2023-01-30T22:38:29.783Z,2.03
2023-01-30T22:41:06.715Z,2.28
2023-01-30T22:43:39.428Z,2.58
2023-01-30T22:46:12.024Z,2.00
2023-01-30T22:48:59.573Z,2.72
2023-01-30T22:51:56.279Z,2.05
2023-01-30T22:54:27.667Z,2.10
2023-01-30T22:57:27.206Z,2.33
2023-01-30T22:59:56.477Z,2.00
2023-01-30T23:02:59.541Z,4.40
2023-01-30T23:05:35.868Z,3.20
2023-01-30T23:08:05.271Z,2.45
2023-01-30T23:10:40.357Z,2.72
2023-01-30T23:13:16.817Z,2.80
2023-01-30T23:15:46.825Z,2.03
2023-01-30T23:18:35.844Z,2.58
2023-01-30T23:21:04.167Z,2.08
2023-01-30T23:24:06.577Z,2.03
2023-01-30T23:26:42.659Z,1.85
2023-01-30T23:29:17.319Z,2.28
2023-01-30T23:31:48.006Z,2.13
2023-01-30T23:35:21.072Z,3.00
2023-01-30T23:39:03.961Z,2.20
2023-01-30T23:42:31.004Z,2.88
2023-01-30T23:45:30.148Z,2.95
2023-01-30T23:48:32.507Z,2.40
2023-01-30T23:55:33.412Z,1.58
2023-01-30T23:58:30.106Z,2.38
